createdAt,value
2017-09-20T00:00:43.150Z,1.7
2017-09-20T00:01:45.589Z,1.7
2017-09-20T00:02:48.033Z,1.7
2017-09-20T00:03:50.470Z,1.6
2017-09-20T00:04:52.917Z,1.7
2017-09-20T00:05:55.373Z,1.7
2017-09-20T00:06:57.813Z,1.7
2017-09-20T00:08:00.259Z,1.6
2017-09-20T00:09:02.700Z,1.7
2017-09-20T00:10:05.490Z,1.7
2017-09-20T00:11:07.944Z,1.7
2017-09-20T00:12:10.387Z,1.6
2017-09-20T00:13:12.827Z,1.7
2017-09-20T00:14:15.310Z,1.6
2017-09-20T00:15:17.718Z,1.6
2017-09-20T00:16:20.163Z,1.6
2017-09-20T00:17:22.949Z,1.6
2017-09-20T00:18:25.391Z,1.7
2017-09-20T00:19:27.836Z,1.7
2017-09-20T00:20:30.632Z,1.6
2017-09-20T00:21:33.074Z,1.6
2017-09-20T00:22:35.513Z,1.7
2017-09-20T00:23:37.962Z,1.7
2017-09-20T00:24:40.421Z,1.7
2017-09-20T00:25:42.872Z,1.7
2017-09-20T00:26:45.319Z,1.7
2017-09-20T00:27:47.767Z,1.6
2017-09-20T00:28:50.218Z,1.7
2017-09-20T00:29:52.655Z,1.6
2017-09-20T00:30:55.100Z,1.7
2017-09-20T00:31:57.892Z,1.7
2017-09-20T00:33:00.328Z,1.7
2017-09-20T00:34:02.773Z,1.7
2017-09-20T00:35:05.224Z,1.6
2017-09-20T00:36:07.668Z,1.6
2017-09-20T00:37:10.121Z,1.7
2017-09-20T00:38:12.565Z,1.6
2017-09-20T00:39:15.002Z,1.7
2017-09-20T00:40:17.456Z,1.6
2017-09-20T00:41:19.902Z,1.6
2017-09-20T00:42:22.346Z,1.7
2017-09-20T00:43:24.797Z,1.5
2017-09-20T00:44:27.233Z,1.7
2017-09-20T00:45:29.682Z,1.6
2017-09-20T00:46:32.130Z,1.7
2017-09-20T00:47:34.570Z,1.7
2017-09-20T00:48:37.017Z,1.7
2017-09-20T00:49:39.464Z,1.7
2017-09-20T00:50:41.906Z,1.7
2017-09-20T00:51:44.356Z,1.7
2017-09-20T00:52:46.799Z,1.7
2017-09-20T00:53:49.240Z,1.7
2017-09-20T00:54:51.686Z,1.6
2017-09-20T00:55:54.127Z,1.7
2017-09-20T00:56:56.569Z,1.7
2017-09-20T00:57:59.013Z,1.7
2017-09-20T00:59:01.457Z,1.7
2017-09-20T01:00:03.903Z,1.6
2017-09-20T01:01:06.345Z,1.7
2017-09-20T01:02:09.139Z,1.6
2017-09-20T01:03:11.583Z,1.7
2017-09-20T01:04:14.028Z,1.7
2017-09-20T01:05:16.479Z,1.7
2017-09-20T01:06:18.923Z,1.7
2017-09-20T01:07:21.370Z,1.6
2017-09-20T01:08:23.818Z,1.7
2017-09-20T01:09:26.602Z,1.7
2017-09-20T01:10:29.046Z,1.6
2017-09-20T01:11:31.488Z,1.7
2017-09-20T01:12:33.935Z,1.7
2017-09-20T01:13:36.377Z,1.7
2017-09-20T01:14:38.824Z,1.6
2017-09-20T01:15:41.262Z,1.6
2017-09-20T01:16:43.711Z,1.7
2017-09-20T01:17:46.157Z,1.6
2017-09-20T01:18:48.602Z,1.7
2017-09-20T01:19:51.052Z,1.7
2017-09-20T01:20:53.501Z,1.7
2017-09-20T01:21:55.945Z,1.7
2017-09-20T01:22:58.394Z,1.7
2017-09-20T01:24:00.848Z,1.7
2017-09-20T01:25:03.638Z,1.7
2017-09-20T01:26:06.080Z,1.6
2017-09-20T01:27:08.532Z,1.6
2017-09-20T01:28:10.976Z,1.7
2017-09-20T01:29:13.411Z,1.7
2017-09-20T01:30:15.859Z,1.7
2017-09-20T01:31:18.303Z,1.6
2017-09-20T01:32:20.749Z,1.6
2017-09-20T01:33:23.198Z,1.7
2017-09-20T01:34:25.640Z,1.7
2017-09-20T01:35:28.086Z,1.7
2017-09-20T01:36:30.538Z,1.7
2017-09-20T01:37:32.980Z,1.5
2017-09-20T01:38:35.423Z,1.7
2017-09-20T01:39:37.866Z,1.6
2017-09-20T01:40:40.305Z,1.7
2017-09-20T01:41:42.757Z,1.7
2017-09-20T01:42:45.202Z,1.7
2017-09-20T01:43:47.638Z,1.7
2017-09-20T01:44:50.434Z,1.7
2017-09-20T01:45:53.224Z,1.6
2017-09-20T01:46:55.669Z,1.7
2017-09-20T01:47:58.116Z,1.7
2017-09-20T01:49:00.556Z,1.7
2017-09-20T01:50:02.997Z,1.7
2017-09-20T01:51:05.452Z,1.6
2017-09-20T01:52:07.893Z,1.7
2017-09-20T01:53:10.336Z,1.7
2017-09-20T01:54:12.779Z,1.6
2017-09-20T01:55:15.226Z,1.6
2017-09-20T01:56:17.671Z,1.7
2017-09-20T01:57:20.117Z,1.7
2017-09-20T01:58:22.557Z,1.6
2017-09-20T01:59:25.006Z,1.7
2017-09-20T02:00:27.451Z,1.6
2017-09-20T02:01:29.903Z,1.7
2017-09-20T02:02:32.344Z,1.6
2017-09-20T02:03:34.792Z,1.6
2017-09-20T02:04:37.239Z,1.6
2017-09-20T02:05:39.686Z,1.7
2017-09-20T02:06:42.811Z,1.7
2017-09-20T02:07:45.257Z,1.7
2017-09-20T02:08:48.034Z,1.7
2017-09-20T02:09:50.482Z,1.6
2017-09-20T02:10:52.928Z,1.6
2017-09-20T02:11:55.372Z,1.6
2017-09-20T02:12:57.818Z,1.7
2017-09-20T02:14:00.612Z,1.7
2017-09-20T02:15:03.058Z,1.7
2017-09-20T02:16:05.511Z,1.7
2017-09-20T02:17:07.946Z,1.6
2017-09-20T02:18:10.393Z,1.6
2017-09-20T02:19:12.839Z,1.7
2017-09-20T02:20:15.287Z,1.7
2017-09-20T02:21:17.735Z,1.5
2017-09-20T02:22:20.182Z,1.7
2017-09-20T02:23:22.625Z,1.5
2017-09-20T02:24:25.061Z,1.6
2017-09-20T02:25:27.502Z,1.7
2017-09-20T02:26:29.948Z,1.7
2017-09-20T02:27:32.386Z,1.7
2017-09-20T02:28:34.830Z,1.7
2017-09-20T02:29:37.278Z,1.7
2017-09-20T02:30:39.723Z,1.7
2017-09-20T02:31:42.171Z,1.7
2017-09-20T02:32:44.617Z,1.6
2017-09-20T02:33:47.402Z,1.7
2017-09-20T02:34:49.846Z,1.7
2017-09-20T02:35:52.293Z,1.6
2017-09-20T02:36:54.735Z,1.7
2017-09-20T02:37:57.175Z,1.6
2017-09-20T02:38:59.614Z,1.6
2017-09-20T02:40:02.062Z,1.6
2017-09-20T02:41:04.506Z,1.6
2017-09-20T02:42:07.655Z,1.7
2017-09-20T02:43:10.093Z,1.6
2017-09-20T02:44:12.536Z,1.5
2017-09-20T02:45:14.979Z,1.6
2017-09-20T02:46:17.428Z,1.6
2017-09-20T02:47:19.873Z,1.5
2017-09-20T02:48:22.314Z,1.6
2017-09-20T02:49:24.755Z,1.6
2017-09-20T02:50:27.548Z,1.6
2017-09-20T02:51:29.986Z,1.6
2017-09-20T02:52:32.432Z,1.6
2017-09-20T02:53:34.876Z,1.6
2017-09-20T02:54:37.319Z,1.6
2017-09-20T02:55:39.772Z,1.6
2017-09-20T02:56:42.212Z,1.7
2017-09-20T02:57:44.663Z,1.6
2017-09-20T02:58:47.112Z,1.7
2017-09-20T02:59:49.548Z,1.7
2017-09-20T03:00:51.996Z,1.5
2017-09-20T03:01:54.439Z,1.6
2017-09-20T03:02:56.880Z,1.5
2017-09-20T03:03:59.321Z,1.6
2017-09-20T03:05:01.761Z,1.6
2017-09-20T03:06:04.201Z,1.6
2017-09-20T03:07:06.648Z,1.6
2017-09-20T03:08:09.089Z,1.6
2017-09-20T03:09:11.537Z,1.7
2017-09-20T03:10:14.332Z,1.6
2017-09-20T03:11:16.772Z,1.6
2017-09-20T03:12:19.219Z,1.6
2017-09-20T03:13:21.663Z,1.7
2017-09-20T03:14:24.100Z,1.6
2017-09-20T03:15:26.545Z,1.6
2017-09-20T03:16:28.991Z,1.5
2017-09-20T03:17:31.435Z,1.6
2017-09-20T03:18:33.881Z,1.7
2017-09-20T03:19:36.328Z,1.7
2017-09-20T03:20:38.770Z,1.7
2017-09-20T03:21:41.222Z,1.6
2017-09-20T03:22:43.660Z,1.7
2017-09-20T03:23:46.114Z,1.6
2017-09-20T03:24:48.558Z,1.7
2017-09-20T03:25:51.003Z,1.7
2017-09-20T03:26:53.815Z,1.5
2017-09-20T03:27:56.263Z,1.6
2017-09-20T03:28:58.712Z,1.7
2017-09-20T03:30:01.511Z,1.7
2017-09-20T03:31:03.953Z,1.6
2017-09-20T03:32:06.746Z,1.7
2017-09-20T03:33:09.193Z,1.6
2017-09-20T03:34:11.635Z,1.7
2017-09-20T03:35:14.076Z,1.7
2017-09-20T03:36:16.522Z,1.6
2017-09-20T03:37:18.962Z,1.7
2017-09-20T03:38:21.421Z,1.5
2017-09-20T03:39:23.861Z,1.6
2017-09-20T03:40:26.291Z,1.6
2017-09-20T03:41:28.740Z,1.7
2017-09-20T03:42:31.182Z,1.6
2017-09-20T03:43:33.632Z,1.6
2017-09-20T03:44:36.077Z,1.6
2017-09-20T03:45:38.518Z,1.7
2017-09-20T03:46:40.964Z,1.6
2017-09-20T03:47:43.416Z,1.7
2017-09-20T03:48:45.868Z,1.7
2017-09-20T03:49:48.306Z,1.7
2017-09-20T03:50:50.745Z,1.7
2017-09-20T03:51:53.188Z,1.6
2017-09-20T03:52:55.626Z,1.7
2017-09-20T03:53:58.073Z,1.6
2017-09-20T03:55:00.523Z,1.6
2017-09-20T03:56:02.963Z,1.6
2017-09-20T03:57:05.423Z,1.6
2017-09-20T03:58:08.230Z,1.7
2017-09-20T03:59:10.671Z,1.5
2017-09-20T04:00:13.114Z,1.6
2017-09-20T04:01:15.559Z,1.7
2017-09-20T04:02:18.003Z,1.6
2017-09-20T04:03:20.449Z,1.6
2017-09-20T04:04:22.903Z,1.6
2017-09-20T04:05:25.347Z,1.7
2017-09-20T04:06:27.794Z,1.7
2017-09-20T04:07:30.238Z,1.6
2017-09-20T04:08:32.681Z,1.6
2017-09-20T04:09:35.124Z,1.6
2017-09-20T04:10:37.568Z,1.6
2017-09-20T04:11:39.997Z,1.6
2017-09-20T04:12:42.444Z,1.5
2017-09-20T04:13:44.890Z,1.7
2017-09-20T04:14:47.336Z,1.6
2017-09-20T04:15:49.784Z,1.7
2017-09-20T04:16:52.227Z,1.7
2017-09-20T04:17:54.670Z,1.7
2017-09-20T04:18:57.122Z,1.5
2017-09-20T04:19:59.563Z,1.7
2017-09-20T04:21:02.007Z,1.7
2017-09-20T04:22:04.453Z,1.7
2017-09-20T04:23:06.898Z,1.6
2017-09-20T04:24:09.347Z,1.6
2017-09-20T04:25:11.792Z,1.6
2017-09-20T04:26:14.243Z,1.6
2017-09-20T04:27:16.687Z,1.6
2017-09-20T04:28:19.131Z,1.7
2017-09-20T04:29:21.571Z,1.6
2017-09-20T04:30:24.014Z,1.6
2017-09-20T04:31:26.453Z,1.6
2017-09-20T04:32:28.905Z,1.7
2017-09-20T04:33:31.345Z,1.6
2017-09-20T04:34:34.133Z,1.7
2017-09-20T04:35:36.578Z,1.6
2017-09-20T04:36:39.023Z,1.6
2017-09-20T04:37:41.467Z,1.7
2017-09-20T04:38:43.918Z,1.6
2017-09-20T04:39:46.361Z,1.7
2017-09-20T04:40:48.812Z,1.6
2017-09-20T04:41:51.252Z,1.6
2017-09-20T04:42:53.695Z,1.6
2017-09-20T04:43:56.137Z,1.6
2017-09-20T04:44:58.587Z,1.7
2017-09-20T04:46:01.027Z,1.7
2017-09-20T04:47:03.475Z,1.6
2017-09-20T04:48:05.915Z,1.6
2017-09-20T04:49:08.355Z,1.6
2017-09-20T04:50:10.801Z,1.7
2017-09-20T04:51:13.949Z,1.7
2017-09-20T04:52:16.395Z,1.6
2017-09-20T04:53:18.833Z,1.6
2017-09-20T04:54:21.275Z,1.7
2017-09-20T04:55:23.719Z,1.6
2017-09-20T04:56:26.497Z,1.7
2017-09-20T04:57:28.942Z,1.7
2017-09-20T04:58:31.391Z,1.7
2017-09-20T04:59:33.831Z,1.5
2017-09-20T05:00:36.281Z,1.6
2017-09-20T05:01:38.736Z,1.5
2017-09-20T05:02:41.183Z,1.6
2017-09-20T05:03:43.638Z,1.6
2017-09-20T05:04:46.085Z,1.6
2017-09-20T05:05:48.523Z,1.6
2017-09-20T05:06:50.971Z,1.5
2017-09-20T05:07:53.412Z,1.7
2017-09-20T05:08:55.856Z,1.6
2017-09-20T05:09:58.647Z,1.7
2017-09-20T05:11:01.084Z,1.6
2017-09-20T05:12:03.531Z,1.6
2017-09-20T05:13:05.978Z,1.5
2017-09-20T05:14:08.421Z,1.6
2017-09-20T05:15:10.867Z,1.7
2017-09-20T05:16:13.662Z,1.7
2017-09-20T05:17:16.104Z,1.6
2017-09-20T05:18:18.552Z,1.7
2017-09-20T05:19:20.995Z,1.7
2017-09-20T05:20:23.438Z,1.6
2017-09-20T05:21:25.892Z,1.7
2017-09-20T05:22:28.337Z,1.7
2017-09-20T05:23:30.780Z,1.6
2017-09-20T05:24:33.216Z,1.6
2017-09-20T05:25:35.661Z,1.7
2017-09-20T05:26:38.452Z,1.7
2017-09-20T05:27:40.888Z,1.7
2017-09-20T05:28:43.677Z,1.6
2017-09-20T05:29:46.123Z,1.6
2017-09-20T05:30:48.568Z,1.7
2017-09-20T05:31:51.719Z,1.7
2017-09-20T05:32:54.163Z,1.6
2017-09-20T05:33:56.603Z,1.6
2017-09-20T05:34:59.058Z,1.6
2017-09-20T05:36:01.500Z,1.7
2017-09-20T05:37:03.945Z,1.7
2017-09-20T05:38:06.395Z,1.7
2017-09-20T05:39:09.172Z,1.7
2017-09-20T05:40:11.613Z,1.7
2017-09-20T05:41:14.060Z,1.7
2017-09-20T05:42:16.502Z,1.6
2017-09-20T05:43:18.949Z,1.7
2017-09-20T05:44:21.394Z,1.6
2017-09-20T05:45:23.839Z,1.6
2017-09-20T05:46:26.295Z,1.6
2017-09-20T05:47:28.744Z,1.7
2017-09-20T05:48:31.524Z,1.7
2017-09-20T05:49:33.975Z,1.7
2017-09-20T05:50:36.426Z,1.7
2017-09-20T05:51:38.872Z,1.7
2017-09-20T05:52:41.323Z,1.6
2017-09-20T05:53:43.767Z,1.7
2017-09-20T05:54:46.214Z,1.7
2017-09-20T05:55:48.657Z,1.7
2017-09-20T05:56:51.098Z,1.7
2017-09-20T05:57:53.545Z,1.7
2017-09-20T05:58:55.988Z,1.6
2017-09-20T05:59:58.431Z,1.7
2017-09-20T06:01:01.219Z,1.7
2017-09-20T06:02:03.665Z,1.7
2017-09-20T06:03:06.454Z,1.7
2017-09-20T06:04:08.895Z,1.6
2017-09-20T06:05:11.341Z,1.8
2017-09-20T06:06:13.789Z,1.7
2017-09-20T06:07:16.239Z,1.5
2017-09-20T06:08:18.683Z,1.7
2017-09-20T06:09:21.134Z,1.7
2017-09-20T06:10:23.570Z,1.6
2017-09-20T06:11:26.378Z,1.7
2017-09-20T06:12:28.831Z,1.7
2017-09-20T06:13:31.278Z,1.5
2017-09-20T06:14:33.724Z,1.7
2017-09-20T06:15:36.170Z,1.8
2017-09-20T06:16:38.616Z,1.7
2017-09-20T06:17:41.066Z,1.7
2017-09-20T06:18:43.511Z,1.9
2017-09-20T06:19:45.948Z,1.7
2017-09-20T06:20:48.393Z,1.7
2017-09-20T06:21:51.185Z,1.7
2017-09-20T06:22:53.627Z,1.8
2017-09-20T06:23:56.072Z,1.6
2017-09-20T06:24:58.512Z,1.7
2017-09-20T06:26:00.956Z,1.7
2017-09-20T06:27:03.398Z,1.7
2017-09-20T06:28:05.847Z,1.6
2017-09-20T06:29:08.293Z,1.7
2017-09-20T06:30:10.742Z,1.7
2017-09-20T06:31:13.186Z,1.8
2017-09-20T06:32:15.635Z,1.7
2017-09-20T06:33:18.076Z,1.8
2017-09-20T06:34:20.531Z,1.8
2017-09-20T06:35:22.964Z,1.7
2017-09-20T06:36:25.416Z,1.8
2017-09-20T06:37:27.856Z,1.7
2017-09-20T06:38:30.297Z,1.8
2017-09-20T06:39:32.742Z,1.7
2017-09-20T06:40:35.531Z,1.8
2017-09-20T06:41:37.972Z,1.8
2017-09-20T06:42:40.420Z,1.7
2017-09-20T06:43:42.860Z,1.8
2017-09-20T06:44:45.660Z,1.7
2017-09-20T06:45:48.113Z,1.7
2017-09-20T06:46:50.900Z,1.7
2017-09-20T06:47:53.344Z,1.7
2017-09-20T06:48:55.794Z,1.7
2017-09-20T06:49:58.241Z,1.7
2017-09-20T06:51:00.679Z,1.7
2017-09-20T06:52:03.126Z,1.7
2017-09-20T06:53:05.577Z,1.7
2017-09-20T06:54:08.029Z,1.7
2017-09-20T06:55:10.485Z,1.7
2017-09-20T06:56:12.946Z,1.7
2017-09-20T06:57:15.400Z,1.8
2017-09-20T06:58:18.202Z,1.7
2017-09-20T06:59:20.651Z,1.8
2017-09-20T07:00:23.091Z,1.7
2017-09-20T07:01:25.879Z,1.8
2017-09-20T07:02:28.322Z,1.8
2017-09-20T07:03:30.771Z,1.8
2017-09-20T07:04:33.215Z,1.8
2017-09-20T07:05:35.665Z,1.8
2017-09-20T07:06:38.108Z,1.8
2017-09-20T07:07:40.555Z,1.8
2017-09-20T07:08:43.009Z,1.8
2017-09-20T07:09:45.452Z,1.8
2017-09-20T07:10:47.903Z,1.8
2017-09-20T07:11:50.351Z,1.8
2017-09-20T07:12:52.807Z,1.9
2017-09-20T07:13:55.251Z,1.9
2017-09-20T07:14:57.697Z,1.8
2017-09-20T07:16:00.143Z,1.8
2017-09-20T07:17:03.287Z,1.9
2017-09-20T07:18:05.732Z,1.9
2017-09-20T07:19:08.187Z,1.8
2017-09-20T07:20:10.639Z,1.9
2017-09-20T07:21:13.429Z,1.9
2017-09-20T07:22:15.877Z,1.9
2017-09-20T07:23:18.329Z,1.9
2017-09-20T07:24:20.770Z,1.9
2017-09-20T07:25:23.223Z,1.9
2017-09-20T07:26:25.679Z,1.9
2017-09-20T07:27:28.122Z,1.9
2017-09-20T07:28:30.573Z,1.9
2017-09-20T07:29:33.026Z,1.9
2017-09-20T07:30:35.467Z,1.9
2017-09-20T07:31:38.270Z,1.9
2017-09-20T07:32:40.718Z,1.9
2017-09-20T07:33:43.502Z,1.9
2017-09-20T07:34:45.959Z,1.9
2017-09-20T07:35:48.408Z,1.9
2017-09-20T07:36:50.862Z,2
2017-09-20T07:37:53.306Z,1.9
2017-09-20T07:38:56.440Z,1.9
2017-09-20T07:39:58.889Z,2
2017-09-20T07:41:01.346Z,2
2017-09-20T07:42:04.135Z,2
2017-09-20T07:43:06.595Z,2
2017-09-20T07:44:09.042Z,2
2017-09-20T07:45:11.491Z,2
2017-09-20T07:46:13.939Z,2
2017-09-20T07:47:16.387Z,2
2017-09-20T07:48:18.839Z,2
2017-09-20T07:49:21.291Z,2
2017-09-20T07:50:23.770Z,2
2017-09-20T07:51:26.568Z,2
2017-09-20T07:52:29.021Z,2
2017-09-20T07:53:31.479Z,1.9
2017-09-20T07:54:33.935Z,2
2017-09-20T07:55:36.744Z,2
2017-09-20T07:56:39.189Z,2
2017-09-20T07:57:41.638Z,2
2017-09-20T07:58:44.087Z,2
2017-09-20T07:59:46.550Z,2
2017-09-20T08:00:49.003Z,2
2017-09-20T08:01:51.451Z,2
2017-09-20T08:02:53.902Z,2
2017-09-20T08:03:56.350Z,1.9
2017-09-20T08:04:58.805Z,2
2017-09-20T08:06:01.255Z,1.9
2017-09-20T08:07:03.692Z,1.9
2017-09-20T08:08:06.139Z,2
2017-09-20T08:09:08.590Z,1.9
2017-09-20T08:10:11.035Z,1.9
2017-09-20T08:11:13.477Z,2
2017-09-20T08:12:15.929Z,2
2017-09-20T08:13:18.390Z,2
2017-09-20T08:14:20.846Z,1.9
2017-09-20T08:15:23.643Z,2
2017-09-20T08:16:26.089Z,2
2017-09-20T08:17:28.536Z,1.9
2017-09-20T08:18:30.990Z,1.9
2017-09-20T08:19:33.436Z,1.9
2017-09-20T08:20:36.228Z,1.9
2017-09-20T08:21:38.686Z,1.9
2017-09-20T08:22:41.135Z,2
2017-09-20T08:23:43.582Z,1.9
2017-09-20T08:24:46.037Z,1.9
2017-09-20T08:25:48.483Z,2
2017-09-20T08:26:50.930Z,2
2017-09-20T08:27:53.383Z,1.9
2017-09-20T08:28:55.825Z,1.9
2017-09-20T08:29:58.277Z,2
2017-09-20T08:31:00.733Z,2
2017-09-20T08:32:03.526Z,2
2017-09-20T08:33:05.972Z,1.9
2017-09-20T08:34:08.421Z,2
2017-09-20T08:35:10.867Z,2
2017-09-20T08:36:13.319Z,2
2017-09-20T08:37:15.767Z,2
2017-09-20T08:38:18.208Z,2
2017-09-20T08:39:20.660Z,1.9
2017-09-20T08:40:23.106Z,1.9
2017-09-20T08:41:25.575Z,2
2017-09-20T08:42:28.004Z,2
2017-09-20T08:43:30.447Z,2
2017-09-20T08:44:32.893Z,2
2017-09-20T08:45:35.342Z,1.9
2017-09-20T08:46:37.787Z,2
2017-09-20T08:47:40.236Z,2
2017-09-20T08:48:42.680Z,2
2017-09-20T08:49:45.135Z,1.9
2017-09-20T08:50:47.581Z,2
2017-09-20T08:51:50.030Z,2
2017-09-20T08:52:52.478Z,2
2017-09-20T08:53:54.932Z,2
2017-09-20T08:54:57.372Z,2
2017-09-20T08:55:59.821Z,1.9
2017-09-20T08:57:02.262Z,2
2017-09-20T08:58:05.403Z,2.1
2017-09-20T08:59:07.857Z,2
2017-09-20T09:00:10.319Z,1.9
2017-09-20T09:01:12.767Z,1.9
2017-09-20T09:02:15.219Z,2
2017-09-20T09:03:17.667Z,1.9
2017-09-20T09:04:20.467Z,2
2017-09-20T09:05:22.916Z,2
2017-09-20T09:06:25.358Z,2
2017-09-20T09:07:27.811Z,2
2017-09-20T09:08:30.264Z,1.9
2017-09-20T09:09:35.141Z,1.9
2017-09-20T09:10:37.588Z,2
2017-09-20T09:11:40.039Z,2
2017-09-20T09:12:43.542Z,2
2017-09-20T09:13:46.914Z,2
2017-09-20T09:14:49.357Z,2
2017-09-20T09:15:53.105Z,2
2017-09-20T09:16:55.553Z,1.9
2017-09-20T09:17:58.004Z,2
2017-09-20T09:19:00.475Z,1.9
2017-09-20T09:20:03.272Z,1.9
2017-09-20T09:21:05.721Z,2
2017-09-20T09:22:09.153Z,2
2017-09-20T09:23:11.611Z,2
2017-09-20T09:24:17.268Z,2
2017-09-20T09:25:21.269Z,2
2017-09-20T09:26:25.778Z,2
2017-09-20T09:27:30.032Z,2
2017-09-20T09:28:32.513Z,2
2017-09-20T09:29:35.793Z,2.1
2017-09-20T09:30:38.234Z,2
2017-09-20T09:31:42.032Z,2
2017-09-20T09:32:44.818Z,2
2017-09-20T09:33:47.858Z,2
2017-09-20T09:34:50.661Z,2
2017-09-20T09:35:53.108Z,2
2017-09-20T09:36:55.551Z,2
2017-09-20T09:37:58.085Z,2
2017-09-20T09:39:00.590Z,2
2017-09-20T09:40:04.464Z,2
2017-09-20T09:41:07.977Z,2
2017-09-20T09:42:11.046Z,1.9
2017-09-20T09:43:14.307Z,2
2017-09-20T09:44:19.588Z,1.9
2017-09-20T09:45:23.167Z,2
2017-09-20T09:46:25.958Z,1.9
2017-09-20T09:47:28.409Z,2
2017-09-20T09:48:30.854Z,2
2017-09-20T09:49:33.311Z,2
2017-09-20T09:50:36.120Z,1.9
2017-09-20T09:51:38.577Z,2
2017-09-20T09:52:41.026Z,2
2017-09-20T09:53:43.473Z,2
2017-09-20T09:54:45.927Z,1.9
2017-09-20T09:55:48.370Z,2
2017-09-20T09:56:50.820Z,2
2017-09-20T09:57:53.267Z,2
2017-09-20T09:58:55.707Z,2
2017-09-20T09:59:58.155Z,2
2017-09-20T10:01:00.606Z,2
2017-09-20T10:02:03.053Z,2
2017-09-20T10:03:05.499Z,2
2017-09-20T10:04:08.295Z,2
2017-09-20T10:05:10.742Z,2.1
2017-09-20T10:06:13.531Z,2.1
2017-09-20T10:07:15.977Z,2.1
2017-09-20T10:08:18.430Z,2.1
2017-09-20T10:09:21.231Z,2.1
2017-09-20T10:10:23.682Z,2.1
2017-09-20T10:11:26.476Z,2.1
2017-09-20T10:12:28.931Z,2.1
2017-09-20T10:13:31.372Z,2.1
2017-09-20T10:14:33.819Z,2.2
2017-09-20T10:15:36.270Z,2.2
2017-09-20T10:16:39.076Z,2.2
2017-09-20T10:17:41.523Z,2.2
2017-09-20T10:18:43.976Z,2.1
2017-09-20T10:19:46.431Z,2.1
2017-09-20T10:20:48.874Z,2.1
2017-09-20T10:21:51.325Z,2.2
2017-09-20T10:22:53.775Z,2.2
2017-09-20T10:23:56.220Z,2.2
2017-09-20T10:24:58.673Z,2.2
2017-09-20T10:26:01.116Z,2.2
2017-09-20T10:27:03.563Z,2.1
2017-09-20T10:28:06.012Z,2.1
2017-09-20T10:29:08.464Z,2.1
2017-09-20T10:30:10.907Z,2.1
2017-09-20T10:31:13.703Z,2.2
2017-09-20T10:32:16.153Z,2.1
2017-09-20T10:33:18.601Z,2.1
2017-09-20T10:34:21.057Z,2.2
2017-09-20T10:35:23.498Z,2.1
2017-09-20T10:36:25.944Z,2.1
2017-09-20T10:37:28.743Z,2.1
2017-09-20T10:38:31.187Z,2.1
2017-09-20T10:39:33.638Z,2
2017-09-20T10:40:36.087Z,2.1
2017-09-20T10:41:38.532Z,2
2017-09-20T10:42:41.328Z,2.1
2017-09-20T10:43:43.777Z,2.1
2017-09-20T10:44:46.221Z,2
2017-09-20T10:45:48.670Z,2.1
2017-09-20T10:46:51.126Z,2
2017-09-20T10:47:53.934Z,2
2017-09-20T10:48:56.723Z,2.1
2017-09-20T10:49:59.178Z,2.1
2017-09-20T10:51:01.623Z,2
2017-09-20T10:52:04.067Z,2.1
2017-09-20T10:53:06.519Z,2.1
2017-09-20T10:54:09.318Z,2.1
2017-09-20T10:55:11.759Z,2.1
2017-09-20T10:56:14.213Z,2.1
2017-09-20T10:57:17.002Z,2.1
2017-09-20T10:58:19.451Z,2.1
2017-09-20T10:59:21.904Z,2.1
2017-09-20T11:00:24.354Z,2.1
2017-09-20T11:01:26.796Z,2.1
2017-09-20T11:02:29.252Z,2.1
2017-09-20T11:03:32.039Z,2.1
2017-09-20T11:04:34.488Z,2.1
2017-09-20T11:05:36.941Z,2.1
2017-09-20T11:06:39.733Z,2.1
2017-09-20T11:07:42.173Z,2.1
2017-09-20T11:08:44.636Z,2.1
2017-09-20T11:09:47.075Z,2.1
2017-09-20T11:10:49.533Z,2.1
2017-09-20T11:11:51.971Z,2.1
2017-09-20T11:12:54.424Z,2.1
2017-09-20T11:13:56.874Z,2.1
2017-09-20T11:14:59.322Z,2.1
2017-09-20T11:16:01.762Z,2.1
2017-09-20T11:17:04.211Z,2.1
2017-09-20T11:18:06.661Z,2.1
2017-09-20T11:19:09.103Z,2.2
2017-09-20T11:20:11.907Z,2.2
2017-09-20T11:21:14.696Z,2.2
2017-09-20T11:22:17.143Z,2.2
2017-09-20T11:23:19.601Z,2.2
2017-09-20T11:24:22.055Z,2.2
2017-09-20T11:25:24.870Z,2.3
2017-09-20T11:26:27.319Z,2.2
2017-09-20T11:27:29.791Z,2.2
2017-09-20T11:28:32.249Z,2.2
2017-09-20T11:29:34.707Z,2.2
2017-09-20T11:30:37.151Z,2.2
2017-09-20T11:31:39.600Z,2.3
2017-09-20T11:32:42.051Z,2.3
2017-09-20T11:33:44.503Z,2.2
2017-09-20T11:34:46.958Z,2.3
2017-09-20T11:35:49.408Z,2.2
2017-09-20T11:36:51.857Z,2.3
2017-09-20T11:37:54.397Z,2.3
2017-09-20T11:38:57.966Z,2.3
2017-09-20T11:40:00.415Z,2.3
2017-09-20T11:41:02.887Z,2.3
2017-09-20T11:42:05.619Z,2.3
2017-09-20T11:43:09.508Z,2.2
2017-09-20T11:44:12.349Z,2.3
2017-09-20T11:45:14.794Z,2.3
2017-09-20T11:46:17.249Z,2.2
2017-09-20T11:47:20.037Z,2.3
2017-09-20T11:48:22.490Z,2.3
2017-09-20T11:49:25.286Z,2.3
2017-09-20T11:50:27.858Z,2.3
2017-09-20T11:51:30.315Z,2.4
2017-09-20T11:52:32.770Z,2.4
2017-09-20T11:53:35.212Z,2.4
2017-09-20T11:54:37.673Z,2.4
2017-09-20T11:55:40.122Z,2.3
2017-09-20T11:56:42.576Z,2.4
2017-09-20T11:57:45.369Z,2.4
2017-09-20T11:58:47.815Z,2.4
2017-09-20T11:59:50.271Z,2.4
2017-09-20T12:00:52.726Z,2.5
2017-09-20T12:01:55.173Z,2.5
2017-09-20T12:02:57.630Z,2.5
2017-09-20T12:04:00.424Z,2.6
2017-09-20T12:05:03.560Z,2.5
2017-09-20T12:06:06.017Z,2.7
2017-09-20T12:07:08.471Z,2.6
2017-09-20T12:08:10.940Z,2.6
2017-09-20T12:09:13.398Z,2.6
2017-09-20T12:10:15.848Z,2.6
2017-09-20T12:11:18.307Z,2.7
2017-09-20T12:12:20.759Z,2.7
2017-09-20T12:13:23.211Z,2.6
2017-09-20T12:14:25.659Z,2.7
2017-09-20T12:15:28.119Z,2.5
2017-09-20T12:16:30.911Z,2.5
2017-09-20T12:17:33.359Z,2.5
2017-09-20T12:18:35.811Z,2.5
2017-09-20T12:19:38.271Z,2.6
2017-09-20T12:20:40.743Z,2.5
2017-09-20T12:21:43.703Z,2.5
2017-09-20T12:22:46.180Z,2.5
2017-09-20T12:23:48.635Z,2.5
2017-09-20T12:24:51.092Z,2.5
2017-09-20T12:25:53.907Z,2.6
2017-09-20T12:26:56.352Z,2.5
2017-09-20T12:27:58.807Z,2.6
2017-09-20T12:29:01.261Z,2.5
2017-09-20T12:30:03.719Z,2.5
2017-09-20T12:31:06.163Z,2.5
2017-09-20T12:32:08.637Z,2.5
2017-09-20T12:33:11.483Z,2.5
2017-09-20T12:34:13.940Z,2.5
2017-09-20T12:35:16.744Z,2.5
2017-09-20T12:36:19.191Z,2.5
2017-09-20T12:37:21.644Z,2.5
2017-09-20T12:38:24.482Z,2.5
2017-09-20T12:39:26.946Z,2.5
2017-09-20T12:40:29.400Z,2.5
2017-09-20T12:41:31.845Z,2.4
2017-09-20T12:42:34.306Z,2.4
2017-09-20T12:43:36.757Z,2.4
2017-09-20T12:44:39.215Z,2.4
2017-09-20T12:45:41.665Z,2.4
2017-09-20T12:46:44.110Z,2.4
2017-09-20T12:47:46.561Z,2.4
2017-09-20T12:48:49.358Z,2.4
2017-09-20T12:49:51.807Z,2.4
2017-09-20T12:50:54.272Z,2.4
2017-09-20T12:51:56.722Z,2.4
2017-09-20T12:52:59.170Z,2.4
2017-09-20T12:54:01.643Z,2.3
2017-09-20T12:55:04.476Z,2.4
2017-09-20T12:56:07.306Z,2.4
2017-09-20T12:57:09.759Z,2.4
2017-09-20T12:58:12.624Z,2.3
2017-09-20T12:59:15.443Z,2.4
2017-09-20T13:00:18.583Z,2.4
2017-09-20T13:01:21.034Z,2.3
2017-09-20T13:02:23.488Z,2.4
2017-09-20T13:03:25.960Z,2.4
2017-09-20T13:04:28.407Z,2.4
2017-09-20T13:05:31.210Z,2.3
2017-09-20T13:06:34.004Z,2.4
2017-09-20T13:07:36.802Z,2.4
2017-09-20T13:08:39.281Z,2.4
2017-09-20T13:09:41.732Z,2.4
2017-09-20T13:10:44.538Z,2.5
2017-09-20T13:11:46.995Z,2.5
2017-09-20T13:12:49.442Z,2.5
2017-09-20T13:13:51.898Z,2.5
2017-09-20T13:14:54.351Z,2.6
2017-09-20T13:15:56.813Z,2.7
2017-09-20T13:16:59.440Z,2.7
2017-09-20T13:18:01.898Z,2.7
2017-09-20T13:19:04.353Z,2.7
2017-09-20T13:20:06.807Z,2.7
2017-09-20T13:21:09.261Z,2.7
2017-09-20T13:22:11.719Z,2.7
2017-09-20T13:23:14.167Z,2.8
2017-09-20T13:24:16.982Z,2.8
2017-09-20T13:25:19.435Z,2.7
2017-09-20T13:26:21.894Z,2.8
2017-09-20T13:27:24.710Z,2.8
2017-09-20T13:28:27.173Z,2.8
2017-09-20T13:29:29.970Z,2.8
2017-09-20T13:30:32.428Z,2.8
2017-09-20T13:31:35.222Z,2.8
2017-09-20T13:32:37.676Z,2.9
2017-09-20T13:33:40.139Z,2.8
2017-09-20T13:34:42.595Z,2.8
2017-09-20T13:35:45.051Z,2.8
2017-09-20T13:36:47.510Z,2.8
2017-09-20T13:37:50.311Z,2.7
2017-09-20T13:38:53.109Z,2.7
2017-09-20T13:39:55.568Z,2.8
2017-09-20T13:40:58.016Z,2.7
2017-09-20T13:42:00.474Z,2.7
2017-09-20T13:43:02.934Z,2.6
2017-09-20T13:44:05.388Z,2.7
2017-09-20T13:45:07.847Z,2.6
2017-09-20T13:46:10.660Z,2.7
2017-09-20T13:47:13.124Z,2.6
2017-09-20T13:48:15.568Z,2.6
2017-09-20T13:49:18.025Z,2.6
2017-09-20T13:50:20.483Z,2.6
2017-09-20T13:51:22.968Z,2.6
2017-09-20T13:52:25.392Z,2.6
2017-09-20T13:53:28.197Z,2.6
2017-09-20T13:54:30.650Z,2.6
2017-09-20T13:55:33.107Z,2.6
2017-09-20T13:56:35.560Z,2.5
2017-09-20T13:57:38.690Z,2.6
2017-09-20T13:58:41.146Z,2.5
2017-09-20T13:59:43.964Z,2.5
2017-09-20T14:00:46.416Z,2.6
2017-09-20T14:01:48.873Z,2.5
2017-09-20T14:02:51.326Z,2.5
2017-09-20T14:03:53.780Z,2.5
2017-09-20T14:04:56.242Z,2.5
2017-09-20T14:05:58.689Z,2.5
2017-09-20T14:07:01.496Z,2.5
2017-09-20T14:08:03.948Z,2.5
2017-09-20T14:09:06.400Z,2.4
2017-09-20T14:10:09.203Z,2.5
2017-09-20T14:11:11.658Z,2.4
2017-09-20T14:12:14.112Z,2.5
2017-09-20T14:13:16.561Z,2.5
2017-09-20T14:14:19.015Z,2.4
2017-09-20T14:15:21.476Z,2.3
2017-09-20T14:16:23.935Z,2.4
2017-09-20T14:17:26.393Z,2.4
2017-09-20T14:18:28.841Z,2.4
2017-09-20T14:19:31.289Z,2.4
2017-09-20T14:20:33.741Z,2.4
2017-09-20T14:21:36.564Z,2.3
2017-09-20T14:22:39.014Z,2.4
2017-09-20T14:23:41.468Z,2.3
2017-09-20T14:24:43.931Z,2.5
2017-09-20T14:25:46.386Z,2.4
2017-09-20T14:26:48.840Z,2.4
2017-09-20T14:27:51.297Z,2.4
2017-09-20T14:28:53.747Z,2.4